Time;durP1;ratioP1;P1;durP2;ratioP2;P2;SDS_P1;SDS_P2;PMS_P1;PMS_P2;Temp;Humidity;BMP_temperature;BMP_pressure;BME280_temperature;BME280_humidity;BME280_pressure;Samples;Min_cycle;Max_cycle;Signal;HPM_P1;HPM_P2
2023/05/20 00:01:44;;;;;;;10.40;7.60;;;;;;;13.43;85.23;101408.57;1751622;80;25604;-62
2023/05/20 00:04:11;;;;;;;14.83;8.68;;;;;;;13.40;85.16;101405.92;1772569;80;29635;-62
2023/05/20 00:06:37;;;;;;;14.65;7.97;;;;;;;13.39;85.16;101400.78;1773317;80;33470;-64
2023/05/20 00:09:03;;;;;;;15.60;8.70;;;;;;;13.37;85.19;101401.08;1773389;80;25601;-63
2023/05/20 00:11:29;;;;;;;15.05;8.73;;;;;;;13.34;85.14;101405.75;1773330;80;26264;-62
2023/05/20 00:13:55;;;;;;;14.05;8.73;;;;;;;13.33;85.10;101399.25;1773356;80;25381;-63
2023/05/20 00:16:21;;;;;;;11.70;7.90;;;;;;;13.31;85.06;101394.65;1773365;80;27478;-62
2023/05/20 00:18:47;;;;;;;17.25;7.90;;;;;;;13.29;85.05;101393.59;1773246;80;25538;-63
2023/05/20 00:21:13;;;;;;;14.45;8.28;;;;;;;13.27;85.03;101395.24;1773341;80;25638;-63
2023/05/20 00:23:39;;;;;;;12.30;6.92;;;;;;;13.25;85.05;101392.03;1773299;80;25655;-62
2023/05/20 00:26:05;;;;;;;13.25;8.05;;;;;;;13.23;84.97;101387.45;1773352;80;25453;-63
2023/05/20 00:28:31;;;;;;;13.85;8.03;;;;;;;13.21;85.07;101392.39;1773377;80;27308;-63
2023/05/20 00:30:57;;;;;;;12.50;7.95;;;;;;;13.18;85.18;101385.39;1773242;80;33114;-63
2023/05/20 00:33:23;;;;;;;14.68;8.15;;;;;;;13.14;85.18;101382.44;1773309;80;25537;-63
2023/05/20 00:35:50;;;;;;;14.00;7.72;;;;;;;13.12;85.16;101382.50;1773304;80;25720;-63
2023/05/20 00:38:16;;;;;;;12.73;7.47;;;;;;;13.10;85.23;101380.08;1773387;80;25786;-63
2023/05/20 00:40:42;;;;;;;11.40;8.08;;;;;;;13.07;85.11;101379.31;1773314;80;27252;-63
2023/05/20 00:43:08;;;;;;;10.78;7.33;;;;;;;13.05;85.13;101380.97;1773216;80;25650;-63
2023/05/20 00:45:37;;;;;;;10.00;7.30;;;;;;;13.01;85.16;101376.45;1751675;80;25471;-63
2023/05/20 00:48:05;;;;;;;13.37;7.90;;;;;;;12.99;85.27;101377.28;1751999;80;25554;-63
2023/05/20 00:50:31;;;;;;;13.30;8.45;;;;;;;12.96;85.42;101374.62;1773348;80;25471;-63
2023/05/20 00:52:58;;;;;;;10.00;7.58;;;;;;;12.92;85.32;101371.44;1780939;80;28067;-63
2023/05/20 00:55:24;;;;;;;12.73;7.70;;;;;;;12.88;85.22;101374.75;1787617;80;25459;-63
2023/05/20 00:57:52;;;;;;;15.23;8.70;;;;;;;12.86;85.46;101369.37;1787679;80;25431;-63
2023/05/20 01:00:19;;;;;;;15.95;8.78;;;;;;;12.82;85.43;101376.48;1787647;80;25645;-63
2023/05/20 01:02:46;;;;;;;11.28;8.73;;;;;;;12.80;85.36;101377.34;1787732;80;25377;-63
2023/05/20 01:05:12;;;;;;;10.40;7.90;;;;;;;12.78;85.64;101375.48;1787647;80;27378;-63
2023/05/20 01:07:39;;;;;;;12.75;7.87;;;;;;;12.75;85.82;101376.07;1787642;80;25534;-63
2023/05/20 01:10:07;;;;;;;14.73;8.30;;;;;;;12.73;86.04;101377.72;1787658;80;25549;-63
2023/05/20 01:12:41;;;;;;;11.20;8.05;;;;;;;12.73;86.03;101383.71;1787657;80;25697;-63
2023/05/20 01:15:11;;;;;;;13.75;8.03;;;;;;;12.70;86.12;101379.14;1787727;80;25639;-63
2023/05/20 01:17:45;;;;;;;12.43;7.78;;;;;;;12.71;86.15;101385.36;1787066;80;27895;-63
2023/05/20 01:20:14;;;;;;;12.98;7.83;;;;;;;12.68;86.21;101374.56;1787618;80;25431;-63
2023/05/20 01:22:55;;;;;;;9.60;7.70;;;;;;;12.67;86.35;101377.01;1787913;80;25624;-64
2023/05/20 01:25:23;;;;;;;13.25;7.83;;;;;;;12.66;86.33;101381.38;1787663;80;25676;-63
2023/05/20 01:27:51;;;;;;;13.17;7.90;;;;;;;12.65;86.45;101379.22;1787940;80;25639;-62
2023/05/20 01:30:19;;;;;;;12.10;8.03;;;;;;;12.63;86.43;101384.14;1787616;80;27904;-63
2023/05/20 01:32:57;;;;;;;14.45;9.03;;;;;;;12.62;86.62;101382.52;1787558;80;25645;-63
2023/05/20 01:35:24;;;;;;;13.35;7.53;;;;;;;12.62;86.61;101387.16;1786131;80;25370;-63
2023/05/20 01:37:52;;;;;;;11.15;8.00;;;;;;;12.60;86.81;101387.44;1787525;80;25621;-63
2023/05/20 01:40:19;;;;;;;13.98;7.83;;;;;;;12.61;86.79;101390.39;1783127;79;25389;-62
2023/05/20 01:42:51;;;;;;;12.95;6.85;;;;;;;12.61;86.75;101380.89;1812456;79;27305;-62
2023/05/20 01:45:14;;;;;;;;;;;;;;;12.62;86.86;101384.44;1814439;79;27207;-62
2023/05/20 01:47:40;;;;;;;12.47;7.58;;;;;;;12.63;86.91;101386.03;1812498;79;30100;-62
2023/05/20 01:50:08;;;;;;;13.13;7.83;;;;;;;12.60;86.76;101382.02;1826897;78;25687;-62
2023/05/20 01:52:35;;;;;;;15.10;7.30;;;;;;;12.61;86.93;101388.24;1780174;79;25450;-62
2023/05/20 01:55:01;;;;;;;12.80;7.58;;;;;;;12.60;87.00;101382.02;1796071;79;27307;-62
2023/05/20 01:57:27;;;;;;;14.13;7.60;;;;;;;12.61;87.10;101374.11;1795916;79;25423;-62
2023/05/20 01:59:53;;;;;;;9.75;7.10;;;;;;;12.61;87.09;101368.69;1796031;79;25528;-62
2023/05/20 02:02:20;;;;;;;14.40;7.62;;;;;;;12.61;87.11;101367.33;1796002;79;25701;-62
2023/05/20 02:04:50;;;;;;;11.97;7.53;;;;;;;12.62;87.26;101372.22;1796066;79;25538;-62
2023/05/20 02:07:18;;;;;;;10.78;7.22;;;;;;;12.62;87.33;101368.16;1796167;79;27382;-62
2023/05/20 02:09:46;;;;;;;11.45;6.62;;;;;;;12.64;87.39;101363.23;1795900;79;25686;-62
2023/05/20 02:12:16;;;;;;;12.60;8.28;;;;;;;12.64;87.42;101364.58;1796015;79;25429;-62
2023/05/20 02:14:46;;;;;;;13.48;7.30;;;;;;;12.64;87.28;101365.94;1796018;79;25693;-62
2023/05/20 02:17:16;;;;;;;;;;;;;;;12.63;87.25;101362.43;1798698;79;25590;-62
2023/05/20 02:19:46;;;;;;;8.63;6.17;;;;;;;12.64;87.42;101361.88;1796065;79;25781;-63
2023/05/20 02:22:14;;;;;;;10.93;6.03;;;;;;;12.64;87.34;101367.30;1795892;79;25768;-63
2023/05/20 02:24:42;;;;;;;10.13;6.60;;;;;;;12.63;87.45;101362.96;1796038;79;25546;-63
2023/05/20 02:27:08;;;;;;;9.20;7.00;;;;;;;12.63;87.33;101366.50;1795952;79;25751;-63
2023/05/20 02:29:35;;;;;;;11.05;6.40;;;;;;;12.63;87.31;101365.14;1796063;79;25380;-63
2023/05/20 02:32:02;;;;;;;13.62;6.58;;;;;;;12.63;87.38;101369.22;1795954;79;27330;-63
2023/05/20 02:34:30;;;;;;;12.05;6.45;;;;;;;12.63;87.33;101370.58;1795892;79;27199;-63
2023/05/20 02:36:56;;;;;;;10.72;7.10;;;;;;;12.64;87.30;101373.52;1796007;79;25290;-64
2023/05/20 02:39:22;;;;;;;10.90;6.20;;;;;;;12.63;87.34;101369.75;1795963;79;25586;-63
2023/05/20 02:41:49;;;;;;;14.95;5.95;;;;;;;12.62;87.32;101370.86;1777907;79;25525;-63
2023/05/20 02:44:15;;;;;;;11.70;6.00;;;;;;;12.63;87.41;101378.72;1795965;79;29440;-63
2023/05/20 02:46:42;;;;;;;11.55;6.10;;;;;;;12.64;87.51;101373.52;1795900;79;25610;-63
2023/05/20 02:49:08;;;;;;;7.85;5.90;;;;;;;12.65;87.52;101377.03;1796105;79;29671;-63
2023/05/20 02:51:34;;;;;;;10.58;5.85;;;;;;;12.66;87.53;101374.03;1796068;79;25625;-64
2023/05/20 02:54:00;;;;;;;10.78;6.53;;;;;;;12.67;87.63;101375.65;1803182;79;25590;-63
2023/05/20 02:56:27;;;;;;;10.40;6.90;;;;;;;12.69;87.71;101374.80;1806665;79;27299;-64
2023/05/20 02:58:54;;;;;;;9.25;6.15;;;;;;;12.70;87.73;101376.95;1806499;79;27215;-63
2023/05/20 03:01:20;;;;;;;10.68;6.53;;;;;;;12.72;87.75;101377.48;1806634;79;25388;-63
2023/05/20 03:03:46;;;;;;;10.68;6.15;;;;;;;12.74;87.82;101372.56;1806569;79;25595;-64
2023/05/20 03:06:12;;;;;;;12.03;6.62;;;;;;;12.75;87.79;101384.22;1806645;79;25608;-64
2023/05/20 03:08:39;;;;;;;7.33;5.72;;;;;;;12.76;87.80;101385.28;1806599;79;27674;-64
2023/05/20 03:11:05;;;;;;;8.38;6.10;;;;;;;12.77;87.75;101382.83;1785937;79;25476;-64
2023/05/20 03:13:32;;;;;;;10.03;5.55;;;;;;;12.80;87.79;101378.70;1806628;79;25603;-64
2023/05/20 03:16:00;;;;;;;10.63;5.97;;;;;;;12.79;87.82;101376.55;1806565;79;25583;-64
2023/05/20 03:18:26;;;;;;;12.40;6.90;;;;;;;12.82;87.79;101384.63;1806617;79;25604;-64
2023/05/20 03:20:53;;;;;;;7.92;5.83;;;;;;;12.82;87.84;101375.95;1806672;79;27385;-63
2023/05/20 03:23:19;;;;;;;8.90;5.35;;;;;;;12.86;88.01;101377.52;1806486;79;25372;-63
2023/05/20 03:25:46;;;;;;;7.60;6.05;;;;;;;12.86;87.93;101378.88;1806574;79;25542;-64
2023/05/20 03:28:12;;;;;;;10.80;6.20;;;;;;;12.88;87.88;101382.89;1806533;79;25638;-64
2023/05/20 03:30:38;;;;;;;10.98;5.80;;;;;;;12.92;87.97;101384.45;1806572;79;25358;-64
2023/05/20 03:33:05;;;;;;;14.20;6.00;;;;;;;12.95;88.06;101386.58;1806547;79;29556;-63
2023/05/20 03:35:31;;;;;;;9.75;5.53;;;;;;;12.98;88.08;101389.27;1806527;79;25608;-63
2023/05/20 03:37:58;;;;;;;10.63;6.05;;;;;;;13.00;87.94;101389.77;1786129;79;25455;-63
2023/05/20 03:40:25;;;;;;;8.00;6.15;;;;;;;13.01;87.94;101384.61;1806561;79;25598;-64
2023/05/20 03:42:51;;;;;;;10.78;5.55;;;;;;;13.03;88.02;101385.11;1806611;79;25428;-63
2023/05/20 03:45:18;;;;;;;10.05;5.35;;;;;;;13.08;88.09;101387.73;1806567;79;27317;-63
2023/05/20 03:47:44;;;;;;;8.38;5.30;;;;;;;13.10;88.00;101389.59;1785966;79;27196;-63
2023/05/20 03:50:11;;;;;;;8.33;5.78;;;;;;;13.13;87.99;101382.73;1806621;79;25369;-63
2023/05/20 03:52:39;;;;;;;8.40;4.78;;;;;;;13.16;87.83;101383.50;1785794;79;25702;-63
2023/05/20 03:55:09;;;;;;;9.80;5.40;;;;;;;13.17;87.73;101377.77;1812153;79;25368;-63
2023/05/20 03:57:35;;;;;;;6.72;4.62;;;;;;;13.22;87.83;101383.67;1812149;78;27318;-63
2023/05/20 04:00:10;;;;;;;8.05;5.22;;;;;;;13.26;87.82;101392.30;1811938;79;25357;-64
2023/05/20 04:02:37;;;;;;;9.95;4.95;;;;;;;13.30;87.79;101384.88;1811990;79;25455;-63
2023/05/20 04:05:11;;;;;;;11.65;6.55;;;;;;;13.33;87.73;101389.21;1811944;79;25544;-63
2023/05/20 04:07:35;;;;;;;8.78;5.53;;;;;;;13.37;87.78;101392.92;1811555;78;25392;-63
2023/05/20 04:10:04;;;;;;;7.92;5.20;;;;;;;13.42;87.54;101388.75;1773317;80;27324;-64
2023/05/20 04:12:31;;;;;;;7.42;5.22;;;;;;;13.44;87.15;101387.89;1754242;81;25615;-63
2023/05/20 04:15:02;;;;;;;11.38;5.17;;;;;;;13.49;87.32;101384.28;1754140;81;25598;-64
2023/05/20 04:17:30;;;;;;;6.80;4.97;;;;;;;13.53;87.26;101385.83;1754088;81;25651;-62
2023/05/20 04:20:00;;;;;;;11.65;5.53;;;;;;;13.57;87.12;101386.83;1754144;81;25418;-62
2023/05/20 04:22:27;;;;;;;9.13;5.37;;;;;;;13.61;87.01;101381.85;1732929;81;27346;-64
2023/05/20 04:24:55;;;;;;;11.43;5.25;;;;;;;13.66;86.82;101389.67;1773246;80;27244;-64
2023/05/20 04:27:22;;;;;;;9.57;5.77;;;;;;;13.68;86.76;101386.09;1754417;81;25424;-63
2023/05/20 04:29:49;;;;;;;10.72;5.08;;;;;;;13.73;86.74;101391.42;1754070;81;27695;-62
2023/05/20 04:32:18;;;;;;;9.48;5.55;;;;;;;13.78;86.62;101389.39;1732867;81;25451;-62
2023/05/20 04:34:46;;;;;;;7.72;5.15;;;;;;;13.83;86.54;101389.84;1773328;80;27317;-62
2023/05/20 04:37:14;;;;;;;8.63;5.78;;;;;;;13.88;86.47;101392.46;1754293;81;25442;-62
2023/05/20 04:39:42;;;;;;;8.78;4.97;;;;;;;13.94;86.59;101395.30;1773356;80;25377;-62
2023/05/20 04:42:08;;;;;;;10.65;5.25;;;;;;;14.00;86.60;101391.38;1754050;81;25628;-62
2023/05/20 04:44:34;;;;;;;8.85;5.03;;;;;;;14.07;86.50;101388.81;1754171;81;25568;-62
2023/05/20 04:47:01;;;;;;;6.90;4.75;;;;;;;14.17;86.80;101387.22;1754135;81;28150;-63
2023/05/20 04:49:30;;;;;;;8.95;4.97;;;;;;;14.25;86.32;101393.30;1754071;81;27266;-62
2023/05/20 04:51:57;;;;;;;7.83;4.62;;;;;;;14.32;85.94;101388.77;1754175;81;26856;-63
2023/05/20 04:54:24;;;;;;;10.45;5.20;;;;;;;14.40;86.03;101382.59;1773258;80;25712;-63
2023/05/20 04:56:51;;;;;;;8.68;4.85;;;;;;;14.49;85.91;101382.66;1754196;81;25373;-63
2023/05/20 04:59:18;;;;;;;6.72;5.15;;;;;;;14.55;85.75;101381.44;1773384;80;27371;-63
2023/05/20 05:01:44;;;;;;;11.75;5.40;;;;;;;14.62;85.67;101380.47;1754047;81;25568;-63
2023/05/20 05:04:10;;;;;;;7.45;5.03;;;;;;;14.70;85.29;101389.27;1732850;81;25425;-62
2023/05/20 05:06:37;;;;;;;10.58;4.75;;;;;;;14.75;84.64;101383.69;1754061;81;25597;-62
2023/05/20 05:09:03;;;;;;;8.08;4.80;;;;;;;14.82;84.79;101385.18;1732890;81;25619;-62
2023/05/20 05:11:30;;;;;;;10.45;5.15;;;;;;;14.90;84.48;101389.88;1754001;81;27300;-62
2023/05/20 05:13:57;;;;;;;8.08;5.00;;;;;;;14.99;84.87;101392.09;1732767;81;25594;-62
2023/05/20 05:16:23;;;;;;;6.85;5.05;;;;;;;15.10;84.85;101390.72;1754082;81;25614;-62
2023/05/20 05:18:50;;;;;;;8.20;4.78;;;;;;;15.21;84.53;101389.08;1773356;80;25558;-64
2023/05/20 05:21:16;;;;;;;6.55;4.33;;;;;;;15.27;83.72;101391.36;1773295;80;25353;-62
2023/05/20 05:23:42;;;;;;;8.70;4.85;;;;;;;15.35;83.63;101391.14;1773285;80;26829;-61
2023/05/20 05:26:08;;;;;;;7.42;4.83;;;;;;;15.42;83.09;101384.66;1751495;80;25599;-62
2023/05/20 05:28:35;;;;;;;9.53;5.33;;;;;;;15.52;82.84;101387.67;1751645;80;25667;-63
2023/05/20 05:31:01;;;;;;;9.23;4.65;;;;;;;15.63;82.95;101387.64;1773221;80;27924;-63
2023/05/20 05:33:28;;;;;;;9.25;4.60;;;;;;;15.75;82.73;101382.11;1773308;80;25415;-63
2023/05/20 05:35:57;;;;;;;9.08;4.42;;;;;;;15.89;82.12;101384.20;1773288;80;27361;-63
2023/05/20 05:38:23;;;;;;;5.10;4.30;;;;;;;16.01;81.59;101383.58;1773102;80;25569;-63
2023/05/20 05:40:49;;;;;;;6.60;4.40;;;;;;;16.12;81.49;101387.58;1773313;80;25425;-63
2023/05/20 05:43:15;;;;;;;9.63;4.35;;;;;;;16.26;80.98;101388.82;1773213;80;25722;-63
2023/05/20 05:45:42;;;;;;;10.20;4.92;;;;;;;16.41;81.10;101387.52;1751477;80;25546;-63
2023/05/20 05:48:08;;;;;;;6.30;4.20;;;;;;;16.49;79.94;101391.38;1773289;80;27279;-64
2023/05/20 05:50:34;;;;;;;6.12;3.60;;;;;;;16.62;80.01;101394.50;1773153;80;27185;-63
2023/05/20 05:53:01;;;;;;;7.65;4.60;;;;;;;16.81;80.12;101387.32;1773233;80;25606;-63
2023/05/20 05:55:28;;;;;;;5.90;4.15;;;;;;;16.94;79.64;101389.64;1785578;80;25660;-64
2023/05/20 05:57:54;;;;;;;6.65;4.12;;;;;;;17.06;78.86;101386.23;1787719;80;25522;-63
2023/05/20 06:00:20;;;;;;;6.97;3.77;;;;;;;17.16;77.75;101389.43;1787671;80;27302;-62
2023/05/20 06:02:48;;;;;;;4.83;3.95;;;;;;;17.30;78.28;101396.63;1756844;80;25579;-62
2023/05/20 06:05:14;;;;;;;8.15;3.42;;;;;;;17.45;77.78;101393.34;1787753;80;25428;-63
2023/05/20 06:07:41;;;;;;;8.15;4.08;;;;;;;17.53;77.09;101391.68;1787663;78;25621;-64
2023/05/20 06:10:10;;;;;;;5.30;3.80;;;;;;;17.66;76.67;101398.06;1787639;80;25544;-63
2023/05/20 06:12:36;;;;;;;6.33;4.00;;;;;;;17.81;76.76;101398.04;1787801;78;28047;-63
2023/05/20 06:15:06;;;;;;;6.85;4.28;;;;;;;17.99;76.13;101400.94;1787663;80;25581;-64
2023/05/20 06:17:36;;;;;;;13.75;7.58;;;;;;;18.09;75.16;101397.80;1787716;78;25391;-65
2023/05/20 06:20:04;;;;;;;6.80;4.42;;;;;;;18.17;74.47;101398.89;1787765;80;26359;-64
2023/05/20 06:22:30;;;;;;;18.60;11.63;;;;;;;18.27;74.07;101397.12;1783040;80;25631;-64
2023/05/20 06:24:59;;;;;;;7.53;4.22;;;;;;;18.39;74.64;101395.01;1756532;80;27591;-64
2023/05/20 06:27:26;;;;;;;9.75;3.50;;;;;;;18.59;74.63;101394.76;1787460;80;25546;-64
2023/05/20 06:29:53;;;;;;;6.15;3.47;;;;;;;18.78;73.95;101396.17;1787582;80;25364;-64
2023/05/20 06:32:19;;;;;;;4.87;3.37;;;;;;;19.00;73.20;101390.89;1787487;80;25637;-64
2023/05/20 06:34:46;;;;;;;4.53;3.52;;;;;;;19.20;72.91;101384.52;1787605;80;25593;-64
2023/05/20 06:37:12;;;;;;;6.87;4.50;;;;;;;19.39;72.02;101384.54;1812439;78;27269;-64
2023/05/20 06:39:39;;;;;;;4.70;3.25;;;;;;;19.63;71.94;101382.39;1826825;78;25364;-64
2023/05/20 06:42:06;;;;;;;4.95;3.35;;;;;;;19.89;70.95;101382.61;1826819;78;25612;-63
2023/05/20 06:44:32;;;;;;;4.97;2.90;;;;;;;20.10;71.06;101380.48;1812412;78;25605;-64
2023/05/20 06:46:58;;;;;;;5.72;3.33;;;;;;;20.35;69.06;101377.67;1812445;79;25606;-64
2023/05/20 06:49:25;;;;;;;7.00;3.40;;;;;;;20.49;69.37;101380.80;1782791;79;27413;-64
2023/05/20 06:51:51;;;;;;;7.70;3.65;;;;;;;20.70;68.48;101376.52;1826681;78;25525;-64
2023/05/20 06:54:18;;;;;;;5.62;3.50;;;;;;;20.91;67.50;101374.11;1783423;79;25845;-64
2023/05/20 06:56:44;;;;;;;7.65;3.37;;;;;;;21.08;66.96;101366.88;1773279;80;25600;-64
2023/05/20 06:59:10;;;;;;;4.33;3.50;;;;;;;21.29;66.43;101367.19;1754046;81;25552;-63
2023/05/20 07:01:37;;;;;;;9.73;5.53;;;;;;;21.50;65.83;101367.50;1754011;81;27374;-63
2023/05/20 07:04:04;;;;;;;7.95;3.22;;;;;;;21.70;65.62;101360.89;1753967;81;25422;-64
2023/05/20 07:06:30;;;;;;;5.03;3.55;;;;;;;21.93;64.29;101362.95;1754001;81;25550;-66
2023/05/20 07:08:57;;;;;;;9.43;4.10;;;;;;;22.13;63.56;101366.52;1773123;80;25541;-67
2023/05/20 07:11:24;;;;;;;4.08;2.92;;;;;;;22.35;63.47;101365.03;1753977;81;25436;-67
2023/05/20 07:13:52;;;;;;;7.72;3.45;;;;;;;22.60;62.77;101363.34;1773166;80;27310;-66
2023/05/20 07:16:19;;;;;;;6.42;3.50;;;;;;;22.71;61.27;101361.00;1773181;80;25605;-65
2023/05/20 07:18:45;;;;;;;5.17;3.80;;;;;;;22.86;61.11;101362.63;1773221;80;25211;-66
2023/05/20 07:21:11;;;;;;;8.65;3.25;;;;;;;22.93;60.04;101362.18;1773171;80;25606;-66
2023/05/20 07:23:37;;;;;;;4.17;3.33;;;;;;;23.10;60.81;101358.72;1751597;80;25631;-66
2023/05/20 07:26:05;;;;;;;8.38;3.33;;;;;;;23.39;60.08;101348.14;1773188;80;27305;-66
2023/05/20 07:28:31;;;;;;;5.03;3.70;;;;;;;23.66;59.65;101358.00;1773165;80;25565;-65
2023/05/20 07:30:59;;;;;;;4.25;3.83;;;;;;;23.89;59.37;101357.17;1773224;80;25625;-65
2023/05/20 07:33:25;;;;;;;7.20;3.47;;;;;;;24.15;59.03;101356.31;1773134;80;25595;-66
2023/05/20 07:35:53;;;;;;;6.65;3.65;;;;;;;24.28;57.64;101351.91;1751435;80;25584;-65
2023/05/20 07:38:20;;;;;;;5.73;3.00;;;;;;;24.44;56.43;101352.48;1773653;80;27317;-64
2023/05/20 07:40:46;;;;;;;6.40;4.53;;;;;;;24.46;56.12;101353.50;1773266;80;25427;-64
2023/05/20 07:43:12;;;;;;;8.65;3.40;;;;;;;24.59;55.41;101347.34;1773386;80;25535;-64
2023/05/20 07:45:38;;;;;;;6.03;3.75;;;;;;;24.78;55.89;101351.09;1773356;80;26340;-66
2023/05/20 07:48:07;;;;;;;5.78;2.90;;;;;;;24.92;55.11;101345.67;1773419;80;25451;-66
2023/05/20 07:50:34;;;;;;;8.28;3.58;;;;;;;25.02;54.21;101340.02;1773452;80;27288;-64
2023/05/20 07:53:00;;;;;;;7.28;4.00;;;;;;;25.03;52.90;101336.66;1773338;80;25432;-64
2023/05/20 07:55:26;;;;;;;6.90;3.65;;;;;;;25.09;53.20;101332.37;1773203;80;25372;-65
2023/05/20 07:57:53;;;;;;;4.92;3.70;;;;;;;25.27;53.91;101337.48;1751738;80;25605;-65
2023/05/20 08:00:20;;;;;;;8.78;4.72;;;;;;;25.58;54.32;101336.69;1751624;80;25635;-67
2023/05/20 08:02:46;;;;;;;9.63;4.72;;;;;;;25.90;53.09;101325.77;1773336;80;27372;-65
2023/05/20 08:05:13;;;;;;;6.65;3.92;;;;;;;26.20;52.67;101332.23;1773252;80;26220;-65
2023/05/20 08:07:39;;;;;;;8.28;3.60;;;;;;;26.51;52.96;101337.67;1773283;80;25590;-66
2023/05/20 08:10:08;;;;;;;7.10;3.85;;;;;;;26.79;51.52;101341.09;1751354;80;25543;-65
2023/05/20 08:12:35;;;;;;;5.75;4.10;;;;;;;26.83;51.12;101329.98;1773458;80;25189;-65
2023/05/20 08:15:01;;;;;;;6.00;3.60;;;;;;;27.09;50.73;101342.69;1773285;80;27285;-65
2023/05/20 08:17:27;;;;;;;8.98;4.12;;;;;;;27.32;49.46;101342.28;1773245;80;25413;-64
2023/05/20 08:19:53;;;;;;;8.75;3.77;;;;;;;27.47;48.79;101340.89;1773347;80;25518;-65
2023/05/20 08:22:21;;;;;;;5.33;3.50;;;;;;;27.56;48.31;101340.64;1773337;80;26290;-65
2023/05/20 08:24:48;;;;;;;;;;;;;;;27.74;47.52;101343.98;1775965;80;25442;-66
2023/05/20 08:27:14;;;;;;;12.25;3.75;;;;;;;27.74;46.44;101332.88;1751536;80;28161;-66
2023/05/20 08:29:44;;;;;;;4.92;4.00;;;;;;;27.91;47.14;101330.61;1773297;80;25668;-67
2023/05/20 08:32:10;;;;;;;4.70;3.83;;;;;;;27.85;44.96;101329.44;1773337;80;25377;-64
2023/05/20 08:34:37;;;;;;;5.17;3.75;;;;;;;27.87;46.23;101331.81;1773272;80;25703;-66
2023/05/20 08:37:04;;;;;;;8.38;4.85;;;;;;;28.00;46.60;101331.59;1751560;80;25594;-66
2023/05/20 08:39:30;;;;;;;5.78;4.30;;;;;;;28.31;47.20;101329.83;1772263;80;27338;-67
2023/05/20 08:41:57;;;;;;;7.03;4.20;;;;;;;28.77;46.26;101329.34;1773290;80;25611;-68
2023/05/20 08:44:30;;;;;;;6.42;4.60;;;;;;;28.92;45.23;101333.42;1773396;80;25547;-73
2023/05/20 08:47:04;;;;;;;6.58;3.83;;;;;;;29.01;44.08;101331.76;1746295;82;25467;-70
2023/05/20 08:49:31;;;;;;;8.68;4.35;;;;;;;29.14;44.46;101323.67;1749803;82;25509;-71
2023/05/20 08:52:03;;;;;;;5.35;3.87;;;;;;;29.25;43.85;101330.55;1749555;82;25946;-71
2023/05/20 08:54:44;;;;;;;5.27;4.20;;;;;;;29.39;43.81;101324.84;1748076;82;25293;-67
2023/05/20 08:57:12;;;;;;;7.55;4.15;;;;;;;29.49;43.48;101328.73;1717019;83;25427;-67
2023/05/20 08:59:48;;;;;;;9.18;4.25;;;;;;;29.75;41.35;101332.80;1721589;83;25667;-67
2023/05/20 09:02:14;;;;;;;7.58;4.22;;;;;;;29.79;42.84;101316.84;1697359;83;25547;-61
2023/05/20 09:04:41;;;;;;;6.95;3.67;;;;;;;29.94;42.06;101320.85;1696337;83;27311;-61
2023/05/20 09:07:07;;;;;;;6.05;3.92;;;;;;;30.02;42.12;101308.98;1719902;83;27177;-61
2023/05/20 09:09:35;;;;;;;8.55;4.35;;;;;;;30.18;41.78;101317.53;1721515;83;25608;-60
2023/05/20 09:12:02;;;;;;;13.32;4.78;;;;;;;30.34;39.75;101314.11;1721588;83;25628;-61
2023/05/20 09:14:31;;;;;;;8.10;4.00;;;;;;;30.43;41.11;101313.02;1697760;83;25548;-66
2023/05/20 09:16:58;;;;;;;6.58;4.10;;;;;;;30.18;40.56;101311.34;1722006;82;27347;-64
2023/05/20 09:19:25;;;;;;;6.25;4.20;;;;;;;30.02;40.94;101314.56;1744732;82;25622;-66
2023/05/20 09:21:55;;;;;;;7.03;4.17;;;;;;;30.00;41.17;101312.19;1744814;82;25612;-64
2023/05/20 09:24:25;;;;;;;7.53;4.40;;;;;;;30.03;40.48;101306.39;1744779;82;26243;-60
2023/05/20 09:26:52;;;;;;;7.55;4.53;;;;;;;29.89;40.44;101306.77;1744889;82;25196;-68
2023/05/20 09:29:23;;;;;;;9.18;4.50;;;;;;;29.98;40.63;101311.83;1723538;82;27957;-67
2023/05/20 09:31:47;;;;;;;10.13;4.80;;;;;;;30.27;40.77;101304.45;1743676;82;25985;-68
2023/05/20 09:34:15;;;;;;;7.83;4.55;;;;;;;30.45;39.79;101298.64;1744172;82;25730;-68
2023/05/20 09:36:44;;;;;;;8.20;4.47;;;;;;;30.56;39.38;101310.41;1744359;82;25757;-70
2023/05/20 09:39:15;;;;;;;4.45;4.05;;;;;;;30.78;39.56;101310.85;1744302;82;25670;-68
2023/05/20 09:41:55;;;;;;;4.47;4.08;;;;;;;31.04;39.50;101304.25;1744134;82;27423;-69
2023/05/20 09:44:23;;;;;;;7.97;4.37;;;;;;;31.19;38.67;101306.97;1744203;82;25685;-68
2023/05/20 09:46:52;;;;;;;9.85;4.20;;;;;;;30.79;37.81;101304.68;1744762;82;25371;-70
2023/05/20 09:49:21;;;;;;;8.63;6.37;;;;;;;30.65;38.68;101301.50;1744876;82;25586;-68
2023/05/20 09:51:49;;;;;;;9.15;6.08;;;;;;;30.62;38.20;101303.77;1744749;82;25556;-68
2023/05/20 09:54:18;;;;;;;7.20;4.55;;;;;;;30.68;38.33;101302.05;1744819;82;27302;-68
2023/05/20 09:56:46;;;;;;;7.35;4.80;;;;;;;30.41;37.36;101301.50;1789061;79;25743;-68
2023/05/20 09:59:16;;;;;;;8.55;4.95;;;;;;;30.10;36.90;101302.88;1777858;79;25602;-68
2023/05/20 10:01:44;;;;;;;6.50;4.60;;;;;;;30.20;37.93;101296.19;1796020;79;26192;-67
2023/05/20 10:04:14;;;;;;;8.98;4.55;;;;;;;30.51;38.68;101301.93;1796222;79;25375;-68
2023/05/20 10:06:47;;;;;;;7.80;4.70;;;;;;;30.93;37.01;101303.64;1796019;79;27268;-69
2023/05/20 10:09:43;;;;;;;8.35;4.85;;;;;;;30.96;36.84;101301.43;1795114;79;25604;-68
2023/05/20 10:12:33;;;;;;;7.28;4.50;;;;;;;31.18;37.11;101286.47;1796186;79;25455;-68
2023/05/20 10:15:22;;;;;;;8.80;4.58;;;;;;;31.20;36.79;101291.79;1795986;79;25660;-69
2023/05/20 10:18:21;;;;;;;13.08;8.70;;;;;;;30.99;37.74;101284.60;1796060;79;25580;-69
2023/05/20 10:20:48;;;;;;;;;;;;;;;31.44;37.68;101281.34;1798749;79;27912;-68
2023/05/20 10:23:22;;;;;;;8.40;6.45;;;;;;;31.69;36.00;101290.45;1795938;79;25490;-69
2023/05/20 10:25:54;;;;;;;8.83;4.65;;;;;;;31.97;36.92;101287.05;1796048;79;25559;-68
2023/05/20 10:28:39;;;;;;;11.95;4.80;;;;;;;32.38;36.55;101285.72;1795985;79;25626;-71
2023/05/20 10:31:19;;;;;;;6.15;4.95;;;;;;;32.57;36.31;101281.88;1796079;79;25458;-70
2023/05/20 10:33:47;;;;;;;7.10;5.67;;;;;;;32.44;35.62;101277.61;1796025;79;27424;-69
2023/05/20 10:36:29;;;;;;;10.58;4.97;;;;;;;32.08;35.15;101284.05;1795966;79;25433;-70
2023/05/20 10:38:58;;;;;;;8.50;5.00;;;;;;;31.67;34.75;101285.32;1796074;79;25599;-69
2023/05/20 10:41:27;;;;;;;7.65;4.80;;;;;;;31.24;33.79;101281.32;1778089;79;25979;-69
2023/05/20 10:44:03;;;;;;;7.08;4.50;;;;;;;30.61;34.44;101275.03;1796387;79;25480;-69
2023/05/20 10:46:32;;;;;;;7.90;5.08;;;;;;;30.23;35.59;101275.22;1796149;79;27354;-70
2023/05/20 10:49:00;;;;;;;8.80;5.15;;;;;;;30.14;35.36;101271.56;1796123;79;25454;-69
2023/05/20 10:51:30;;;;;;;8.08;5.12;;;;;;;30.30;36.66;101258.97;1796196;79;25582;-70
2023/05/20 10:53:57;;;;;;;5.47;4.97;;;;;;;30.60;35.69;101260.10;1795973;79;25731;-70
2023/05/20 10:56:25;;;;;;;10.00;5.20;;;;;;;30.68;35.73;101265.75;1795973;79;25618;-69
2023/05/20 10:58:53;;;;;;;5.62;4.90;;;;;;;30.83;35.57;101259.32;1796156;79;27803;-71
2023/05/20 11:01:26;;;;;;;8.43;5.60;;;;;;;30.84;35.69;101265.09;1796085;79;25374;-69
2023/05/20 11:03:57;;;;;;;7.75;5.28;;;;;;;30.95;35.97;101256.55;1796049;79;25550;-70
2023/05/20 11:06:27;;;;;;;9.83;5.47;;;;;;;31.35;35.28;101261.57;1796100;79;25579;-71
2023/05/20 11:08:55;;;;;;;7.55;5.17;;;;;;;31.15;34.25;101248.20;1796090;79;25366;-69
2023/05/20 11:11:21;;;;;;;5.50;4.95;;;;;;;30.53;34.57;101246.47;1796211;79;27305;-71
2023/05/20 11:13:51;;;;;;;7.55;5.05;;;;;;;30.09;35.03;101248.33;1796125;79;25524;-71
2023/05/20 11:16:21;;;;;;;7.62;5.22;;;;;;;30.21;35.31;101237.19;1796204;79;25504;-70
2023/05/20 11:18:49;;;;;;;9.38;5.55;;;;;;;29.87;35.33;101239.47;1796255;79;25604;-71
2023/05/20 11:21:15;;;;;;;5.53;5.00;;;;;;;29.52;35.54;101228.16;1796466;79;25556;-70
2023/05/20 11:23:41;;;;;;;11.70;4.78;;;;;;;29.30;36.45;101230.41;1778164;79;27769;-70
2023/05/20 11:26:08;;;;;;;10.80;5.70;;;;;;;29.67;37.06;101230.95;1777637;79;25680;-71
2023/05/20 11:28:35;;;;;;;5.12;4.67;;;;;;;29.77;36.63;101225.86;1796171;79;25444;-71